sensor_id;sensor_type;location;lat;lon;timestamp;P1;durP1;ratioP1;P2;durP2;ratioP2
7703;SDS011;3894;49.700;10.770;2023-01-10T00:00:23;4.38;;;0.60;;
7703;SDS011;3894;49.700;10.770;2023-01-10T00:02:50;3.33;;;0.60;;
7703;SDS011;3894;49.700;10.770;2023-01-10T00:05:16;4.93;;;0.65;;
7703;SDS011;3894;49.700;10.770;2023-01-10T00:07:42;2.83;;;0.80;;
7703;SDS011;3894;49.700;10.770;2023-01-10T00:10:08;4.82;;;0.82;;
7703;SDS011;3894;49.700;10.770;2023-01-10T00:12:34;2.63;;;0.45;;
7703;SDS011;3894;49.700;10.770;2023-01-10T00:15:19;2.35;;;0.45;;
7703;SDS011;3894;49.700;10.770;2023-01-10T00:17:45;3.95;;;0.50;;
7703;SDS011;3894;49.700;10.770;2023-01-10T00:20:10;3.75;;;0.63;;
7703;SDS011;3894;49.700;10.770;2023-01-10T00:22:36;5.13;;;0.73;;
7703;SDS011;3894;49.700;10.770;2023-01-10T00:25:02;5.05;;;0.35;;
7703;SDS011;3894;49.700;10.770;2023-01-10T00:27:28;2.92;;;1.00;;
7703;SDS011;3894;49.700;10.770;2023-01-10T00:29:53;4.18;;;0.45;;
7703;SDS011;3894;49.700;10.770;2023-01-10T00:32:20;4.82;;;0.50;;
7703;SDS011;3894;49.700;10.770;2023-01-10T00:34:46;5.00;;;0.50;;
7703;SDS011;3894;49.700;10.770;2023-01-10T00:37:12;5.72;;;0.80;;
7703;SDS011;3894;49.700;10.770;2023-01-10T00:39:37;3.40;;;0.65;;
7703;SDS011;3894;49.700;10.770;2023-01-10T00:42:03;6.00;;;0.88;;
7703;SDS011;3894;49.700;10.770;2023-01-10T00:44:47;4.72;;;0.63;;
7703;SDS011;3894;49.700;10.770;2023-01-10T00:47:13;4.15;;;0.80;;
7703;SDS011;3894;49.700;10.770;2023-01-10T00:49:38;6.38;;;0.90;;
7703;SDS011;3894;49.700;10.770;2023-01-10T00:52:04;3.22;;;0.55;;
7703;SDS011;3894;49.700;10.770;2023-01-10T00:54:30;3.30;;;0.43;;
7703;SDS011;3894;49.700;10.770;2023-01-10T00:56:55;3.72;;;0.50;;
7703;SDS011;3894;49.700;10.770;2023-01-10T00:59:21;2.83;;;0.52;;
7703;SDS011;3894;49.700;10.770;2023-01-10T01:01:47;3.75;;;1.15;;
7703;SDS011;3894;49.700;10.770;2023-01-10T01:04:12;3.08;;;0.60;;
7703;SDS011;3894;49.700;10.770;2023-01-10T01:06:38;3.25;;;0.70;;
7703;SDS011;3894;49.700;10.770;2023-01-10T01:09:04;4.32;;;0.60;;
7703;SDS011;3894;49.700;10.770;2023-01-10T01:11:29;5.03;;;1.00;;
7703;SDS011;3894;49.700;10.770;2023-01-10T01:13:55;2.88;;;0.50;;
7703;SDS011;3894;49.700;10.770;2023-01-10T01:16:20;5.40;;;0.65;;
7703;SDS011;3894;49.700;10.770;2023-01-10T01:18:46;4.18;;;0.95;;
7703;SDS011;3894;49.700;10.770;2023-01-10T01:21:12;4.10;;;0.60;;
7703;SDS011;3894;49.700;10.770;2023-01-10T01:23:38;5.68;;;1.00;;
7703;SDS011;3894;49.700;10.770;2023-01-10T01:26:03;5.53;;;1.00;;
7703;SDS011;3894;49.700;10.770;2023-01-10T01:28:30;3.97;;;1.00;;
7703;SDS011;3894;49.700;10.770;2023-01-10T01:30:56;6.07;;;0.80;;
7703;SDS011;3894;49.700;10.770;2023-01-10T01:33:21;5.55;;;1.00;;
7703;SDS011;3894;49.700;10.770;2023-01-10T01:35:48;3.20;;;0.75;;
7703;SDS011;3894;49.700;10.770;2023-01-10T01:38:15;3.72;;;1.00;;
7703;SDS011;3894;49.700;10.770;2023-01-10T01:40:41;3.78;;;1.10;;
7703;SDS011;3894;49.700;10.770;2023-01-10T01:43:26;4.07;;;1.10;;
7703;SDS011;3894;49.700;10.770;2023-01-10T01:45:53;4.72;;;1.23;;
7703;SDS011;3894;49.700;10.770;2023-01-10T01:48:25;5.13;;;0.98;;
7703;SDS011;3894;49.700;10.770;2023-01-10T01:51:02;5.28;;;1.38;;
7703;SDS011;3894;49.700;10.770;2023-01-10T01:53:36;3.83;;;1.10;;
7703;SDS011;3894;49.700;10.770;2023-01-10T01:56:12;3.50;;;1.00;;
7703;SDS011;3894;49.700;10.770;2023-01-10T01:58:51;3.80;;;0.90;;
7703;SDS011;3894;49.700;10.770;2023-01-10T02:01:21;4.43;;;1.13;;
7703;SDS011;3894;49.700;10.770;2023-01-10T02:03:48;4.78;;;1.00;;
7703;SDS011;3894;49.700;10.770;2023-01-10T02:06:18;4.05;;;1.15;;
7703;SDS011;3894;49.700;10.770;2023-01-10T02:08:49;3.13;;;0.60;;
7703;SDS011;3894;49.700;10.770;2023-01-10T02:11:22;4.55;;;1.13;;
7703;SDS011;3894;49.700;10.770;2023-01-10T02:13:48;4.35;;;1.20;;
7703;SDS011;3894;49.700;10.770;2023-01-10T02:16:15;5.40;;;1.33;;
7703;SDS011;3894;49.700;10.770;2023-01-10T02:18:41;4.55;;;1.48;;
7703;SDS011;3894;49.700;10.770;2023-01-10T02:26:59;4.85;;;1.42;;
7703;SDS011;3894;49.700;10.770;2023-01-10T02:29:38;5.40;;;1.17;;
7703;SDS011;3894;49.700;10.770;2023-01-10T02:32:23;5.43;;;1.23;;
7703;SDS011;3894;49.700;10.770;2023-01-10T02:40:36;4.40;;;0.93;;
7703;SDS011;3894;49.700;10.770;2023-01-10T02:43:13;5.38;;;1.75;;
7703;SDS011;3894;49.700;10.770;2023-01-10T02:45:59;5.07;;;1.15;;
7703;SDS011;3894;49.700;10.770;2023-01-10T02:48:30;6.15;;;1.70;;
7703;SDS011;3894;49.700;10.770;2023-01-10T02:50:57;4.75;;;1.52;;
7703;SDS011;3894;49.700;10.770;2023-01-10T02:53:38;4.47;;;1.30;;
7703;SDS011;3894;49.700;10.770;2023-01-10T03:04:31;4.15;;;1.10;;
7703;SDS011;3894;49.700;10.770;2023-01-10T03:09:44;4.80;;;1.38;;
7703;SDS011;3894;49.700;10.770;2023-01-10T03:12:27;6.13;;;1.98;;
7703;SDS011;3894;49.700;10.770;2023-01-10T03:14:58;6.45;;;2.22;;
7703;SDS011;3894;49.700;10.770;2023-01-10T03:17:26;3.63;;;1.25;;
7703;SDS011;3894;49.700;10.770;2023-01-10T03:19:55;4.45;;;1.27;;
7703;SDS011;3894;49.700;10.770;2023-01-10T03:22:24;5.22;;;1.65;;
7703;SDS011;3894;49.700;10.770;2023-01-10T03:24:53;5.35;;;1.83;;
7703;SDS011;3894;49.700;10.770;2023-01-10T03:32:22;5.85;;;1.52;;
7703;SDS011;3894;49.700;10.770;2023-01-10T03:34:51;5.78;;;1.55;;
7703;SDS011;3894;49.700;10.770;2023-01-10T03:37:20;4.90;;;1.48;;
7703;SDS011;3894;49.700;10.770;2023-01-10T03:45:40;4.35;;;1.33;;
7703;SDS011;3894;49.700;10.770;2023-01-10T03:48:11;5.05;;;1.50;;
7703;SDS011;3894;49.700;10.770;2023-01-10T03:50:41;7.40;;;1.60;;
7703;SDS011;3894;49.700;10.770;2023-01-10T03:53:07;5.57;;;1.52;;
7703;SDS011;3894;49.700;10.770;2023-01-10T03:55:34;4.57;;;1.08;;
7703;SDS011;3894;49.700;10.770;2023-01-10T03:58:01;3.67;;;0.88;;
7703;SDS011;3894;49.700;10.770;2023-01-10T04:00:26;2.83;;;0.82;;
7703;SDS011;3894;49.700;10.770;2023-01-10T04:02:52;5.05;;;1.10;;
7703;SDS011;3894;49.700;10.770;2023-01-10T04:05:17;3.55;;;0.80;;
7703;SDS011;3894;49.700;10.770;2023-01-10T04:07:43;4.55;;;0.93;;
7703;SDS011;3894;49.700;10.770;2023-01-10T04:10:08;3.72;;;0.80;;
7703;SDS011;3894;49.700;10.770;2023-01-10T04:12:34;4.95;;;1.10;;
7703;SDS011;3894;49.700;10.770;2023-01-10T04:15:00;3.53;;;0.63;;
7703;SDS011;3894;49.700;10.770;2023-01-10T04:17:26;3.25;;;0.55;;
7703;SDS011;3894;49.700;10.770;2023-01-10T04:19:52;4.45;;;1.45;;
7703;SDS011;3894;49.700;10.770;2023-01-10T04:22:18;3.78;;;0.93;;
7703;SDS011;3894;49.700;10.770;2023-01-10T04:24:43;3.33;;;0.65;;
7703;SDS011;3894;49.700;10.770;2023-01-10T04:27:11;4.88;;;1.20;;
7703;SDS011;3894;49.700;10.770;2023-01-10T04:29:36;4.47;;;1.42;;
7703;SDS011;3894;49.700;10.770;2023-01-10T04:32:02;3.35;;;0.75;;
7703;SDS011;3894;49.700;10.770;2023-01-10T04:34:27;4.88;;;0.93;;
7703;SDS011;3894;49.700;10.770;2023-01-10T04:36:53;3.67;;;0.88;;
7703;SDS011;3894;49.700;10.770;2023-01-10T04:39:18;3.80;;;0.70;;
7703;SDS011;3894;49.700;10.770;2023-01-10T04:41:44;4.70;;;1.05;;
7703;SDS011;3894;49.700;10.770;2023-01-10T04:44:10;4.78;;;1.23;;
7703;SDS011;3894;49.700;10.770;2023-01-10T04:46:36;4.18;;;1.33;;
7703;SDS011;3894;49.700;10.770;2023-01-10T04:49:02;4.18;;;0.93;;
7703;SDS011;3894;49.700;10.770;2023-01-10T04:51:27;4.18;;;0.88;;
7703;SDS011;3894;49.700;10.770;2023-01-10T04:53:53;6.13;;;1.08;;
7703;SDS011;3894;49.700;10.770;2023-01-10T04:58:47;6.90;;;1.23;;
7703;SDS011;3894;49.700;10.770;2023-01-10T05:01:14;5.32;;;1.05;;
7703;SDS011;3894;49.700;10.770;2023-01-10T05:03:47;8.13;;;1.83;;
7703;SDS011;3894;49.700;10.770;2023-01-10T05:06:14;5.88;;;1.75;;
7703;SDS011;3894;49.700;10.770;2023-01-10T05:08:40;3.92;;;1.17;;
7703;SDS011;3894;49.700;10.770;2023-01-10T05:11:06;4.88;;;1.15;;
7703;SDS011;3894;49.700;10.770;2023-01-10T05:13:31;3.95;;;0.98;;
7703;SDS011;3894;49.700;10.770;2023-01-10T05:15:57;3.70;;;0.80;;
7703;SDS011;3894;49.700;10.770;2023-01-10T05:18:24;7.55;;;1.17;;
7703;SDS011;3894;49.700;10.770;2023-01-10T05:20:50;6.00;;;1.33;;
7703;SDS011;3894;49.700;10.770;2023-01-10T05:23:16;5.53;;;1.23;;
7703;SDS011;3894;49.700;10.770;2023-01-10T05:25:41;5.43;;;1.40;;
7703;SDS011;3894;49.700;10.770;2023-01-10T05:28:07;4.15;;;0.73;;
7703;SDS011;3894;49.700;10.770;2023-01-10T05:30:33;4.53;;;0.90;;
7703;SDS011;3894;49.700;10.770;2023-01-10T05:32:58;7.35;;;1.65;;
7703;SDS011;3894;49.700;10.770;2023-01-10T05:35:24;6.47;;;1.00;;
7703;SDS011;3894;49.700;10.770;2023-01-10T05:37:50;4.78;;;0.90;;
7703;SDS011;3894;49.700;10.770;2023-01-10T05:40:15;6.43;;;1.10;;
7703;SDS011;3894;49.700;10.770;2023-01-10T05:42:41;4.22;;;0.98;;
7703;SDS011;3894;49.700;10.770;2023-01-10T05:45:07;4.85;;;1.60;;
7703;SDS011;3894;49.700;10.770;2023-01-10T05:47:33;5.20;;;1.77;;
7703;SDS011;3894;49.700;10.770;2023-01-10T05:49:58;6.88;;;1.83;;
7703;SDS011;3894;49.700;10.770;2023-01-10T05:52:24;8.30;;;1.60;;
7703;SDS011;3894;49.700;10.770;2023-01-10T05:54:49;11.32;;;3.80;;
7703;SDS011;3894;49.700;10.770;2023-01-10T05:57:15;8.10;;;2.42;;
7703;SDS011;3894;49.700;10.770;2023-01-10T05:59:40;5.97;;;2.00;;
7703;SDS011;3894;49.700;10.770;2023-01-10T06:02:06;5.65;;;1.77;;
7703;SDS011;3894;49.700;10.770;2023-01-10T06:04:31;5.75;;;1.48;;
7703;SDS011;3894;49.700;10.770;2023-01-10T06:06:57;6.10;;;2.28;;
7703;SDS011;3894;49.700;10.770;2023-01-10T06:09:22;4.28;;;0.98;;
7703;SDS011;3894;49.700;10.770;2023-01-10T06:11:48;5.95;;;1.77;;
7703;SDS011;3894;49.700;10.770;2023-01-10T06:14:13;6.00;;;1.60;;
7703;SDS011;3894;49.700;10.770;2023-01-10T06:16:43;4.55;;;0.90;;
7703;SDS011;3894;49.700;10.770;2023-01-10T06:19:09;4.82;;;0.82;;
7703;SDS011;3894;49.700;10.770;2023-01-10T06:21:34;2.42;;;0.52;;
7703;SDS011;3894;49.700;10.770;2023-01-10T06:24:00;5.28;;;0.90;;
7703;SDS011;3894;49.700;10.770;2023-01-10T06:26:26;5.88;;;1.30;;
7703;SDS011;3894;49.700;10.770;2023-01-10T06:28:51;5.82;;;1.13;;
7703;SDS011;3894;49.700;10.770;2023-01-10T06:31:17;7.15;;;1.90;;
7703;SDS011;3894;49.700;10.770;2023-01-10T06:33:43;5.88;;;1.52;;
7703;SDS011;3894;49.700;10.770;2023-01-10T06:36:08;8.63;;;2.50;;
7703;SDS011;3894;49.700;10.770;2023-01-10T06:38:34;4.88;;;1.48;;
7703;SDS011;3894;49.700;10.770;2023-01-10T06:40:59;10.07;;;2.10;;
7703;SDS011;3894;49.700;10.770;2023-01-10T06:43:36;5.75;;;1.50;;
7703;SDS011;3894;49.700;10.770;2023-01-10T06:46:16;9.48;;;2.50;;
7703;SDS011;3894;49.700;10.770;2023-01-10T06:48:43;6.10;;;1.45;;
7703;SDS011;3894;49.700;10.770;2023-01-10T06:51:09;7.43;;;1.58;;
7703;SDS011;3894;49.700;10.770;2023-01-10T06:53:35;5.65;;;1.10;;
7703;SDS011;3894;49.700;10.770;2023-01-10T06:56:01;3.85;;;0.75;;
7703;SDS011;3894;49.700;10.770;2023-01-10T06:58:27;6.22;;;0.80;;
7703;SDS011;3894;49.700;10.770;2023-01-10T07:00:52;5.97;;;1.25;;
7703;SDS011;3894;49.700;10.770;2023-01-10T07:03:18;5.80;;;1.27;;
7703;SDS011;3894;49.700;10.770;2023-01-10T07:05:44;4.20;;;0.90;;
7703;SDS011;3894;49.700;10.770;2023-01-10T07:08:09;7.40;;;1.75;;
7703;SDS011;3894;49.700;10.770;2023-01-10T07:10:35;5.43;;;1.58;;
7703;SDS011;3894;49.700;10.770;2023-01-10T07:13:00;6.95;;;1.35;;
7703;SDS011;3894;49.700;10.770;2023-01-10T07:15:26;7.35;;;2.03;;
7703;SDS011;3894;49.700;10.770;2023-01-10T07:17:53;5.65;;;1.17;;
7703;SDS011;3894;49.700;10.770;2023-01-10T07:20:21;4.82;;;0.90;;
7703;SDS011;3894;49.700;10.770;2023-01-10T07:22:54;6.60;;;1.23;;
7703;SDS011;3894;49.700;10.770;2023-01-10T07:25:20;5.95;;;1.00;;
7703;SDS011;3894;49.700;10.770;2023-01-10T07:27:46;5.68;;;0.98;;
7703;SDS011;3894;49.700;10.770;2023-01-10T07:30:12;4.00;;;0.90;;
7703;SDS011;3894;49.700;10.770;2023-01-10T07:32:38;6.97;;;1.48;;
7703;SDS011;3894;49.700;10.770;2023-01-10T07:35:03;6.32;;;1.40;;
7703;SDS011;3894;49.700;10.770;2023-01-10T07:37:29;9.50;;;2.78;;
7703;SDS011;3894;49.700;10.770;2023-01-10T07:39:54;8.10;;;2.75;;
7703;SDS011;3894;49.700;10.770;2023-01-10T07:42:20;8.23;;;2.03;;
7703;SDS011;3894;49.700;10.770;2023-01-10T07:44:46;7.40;;;2.10;;
7703;SDS011;3894;49.700;10.770;2023-01-10T07:47:11;7.38;;;2.60;;
7703;SDS011;3894;49.700;10.770;2023-01-10T07:49:37;5.97;;;1.45;;
7703;SDS011;3894;49.700;10.770;2023-01-10T07:52:02;7.10;;;1.60;;
7703;SDS011;3894;49.700;10.770;2023-01-10T07:54:29;8.25;;;1.80;;
7703;SDS011;3894;49.700;10.770;2023-01-10T07:56:54;6.18;;;1.17;;
7703;SDS011;3894;49.700;10.770;2023-01-10T07:59:20;6.55;;;1.13;;
7703;SDS011;3894;49.700;10.770;2023-01-10T08:01:45;6.05;;;0.85;;
7703;SDS011;3894;49.700;10.770;2023-01-10T08:04:12;4.80;;;1.33;;
7703;SDS011;3894;49.700;10.770;2023-01-10T08:06:38;7.20;;;1.40;;
7703;SDS011;3894;49.700;10.770;2023-01-10T08:09:03;9.32;;;0.80;;
7703;SDS011;3894;49.700;10.770;2023-01-10T08:11:29;5.55;;;1.80;;
7703;SDS011;3894;49.700;10.770;2023-01-10T08:13:55;16.23;;;3.70;;
7703;SDS011;3894;49.700;10.770;2023-01-10T08:16:20;40.28;;;9.60;;
7703;SDS011;3894;49.700;10.770;2023-01-10T08:18:46;40.95;;;9.38;;
7703;SDS011;3894;49.700;10.770;2023-01-10T08:21:12;22.15;;;6.30;;
7703;SDS011;3894;49.700;10.770;2023-01-10T08:23:37;9.73;;;3.83;;
7703;SDS011;3894;49.700;10.770;2023-01-10T08:26:04;8.88;;;2.13;;
7703;SDS011;3894;49.700;10.770;2023-01-10T08:28:30;8.80;;;1.73;;
7703;SDS011;3894;49.700;10.770;2023-01-10T08:30:56;5.82;;;1.25;;
7703;SDS011;3894;49.700;10.770;2023-01-10T08:33:22;6.05;;;1.42;;
7703;SDS011;3894;49.700;10.770;2023-01-10T08:35:48;3.80;;;0.80;;
7703;SDS011;3894;49.700;10.770;2023-01-10T08:38:14;6.85;;;1.10;;
7703;SDS011;3894;49.700;10.770;2023-01-10T08:40:40;4.53;;;1.00;;
7703;SDS011;3894;49.700;10.770;2023-01-10T08:43:07;9.70;;;1.27;;
7703;SDS011;3894;49.700;10.770;2023-01-10T08:45:36;4.38;;;0.98;;
7703;SDS011;3894;49.700;10.770;2023-01-10T08:48:03;7.07;;;1.52;;
7703;SDS011;3894;49.700;10.770;2023-01-10T08:50:29;9.88;;;2.47;;
7703;SDS011;3894;49.700;10.770;2023-01-10T08:52:58;6.10;;;1.80;;
7703;SDS011;3894;49.700;10.770;2023-01-10T08:55:25;8.27;;;1.30;;
7703;SDS011;3894;49.700;10.770;2023-01-10T08:57:51;7.65;;;1.10;;
7703;SDS011;3894;49.700;10.770;2023-01-10T09:00:17;5.47;;;0.68;;
7703;SDS011;3894;49.700;10.770;2023-01-10T09:02:43;5.78;;;1.10;;
7703;SDS011;3894;49.700;10.770;2023-01-10T09:05:08;3.97;;;1.05;;
7703;SDS011;3894;49.700;10.770;2023-01-10T09:07:35;4.63;;;1.15;;
7703;SDS011;3894;49.700;10.770;2023-01-10T09:10:00;4.18;;;1.05;;
7703;SDS011;3894;49.700;10.770;2023-01-10T09:12:26;7.30;;;1.10;;
7703;SDS011;3894;49.700;10.770;2023-01-10T09:15:10;6.05;;;1.05;;
7703;SDS011;3894;49.700;10.770;2023-01-10T09:17:36;6.78;;;1.05;;
7703;SDS011;3894;49.700;10.770;2023-01-10T09:20:02;4.70;;;0.73;;
7703;SDS011;3894;49.700;10.770;2023-01-10T09:22:30;7.55;;;1.58;;
7703;SDS011;3894;49.700;10.770;2023-01-10T09:24:56;5.43;;;0.90;;
7703;SDS011;3894;49.700;10.770;2023-01-10T09:27:22;7.22;;;1.95;;
7703;SDS011;3894;49.700;10.770;2023-01-10T09:29:48;10.13;;;1.60;;
7703;SDS011;3894;49.700;10.770;2023-01-10T09:32:13;6.30;;;1.67;;
7703;SDS011;3894;49.700;10.770;2023-01-10T09:34:39;8.75;;;1.52;;
7703;SDS011;3894;49.700;10.770;2023-01-10T09:37:04;6.95;;;1.63;;
7703;SDS011;3894;49.700;10.770;2023-01-10T09:39:30;13.07;;;3.65;;
7703;SDS011;3894;49.700;10.770;2023-01-10T09:44:57;11.40;;;3.00;;
7703;SDS011;3894;49.700;10.770;2023-01-10T09:47:50;4.75;;;1.35;;
7703;SDS011;3894;49.700;10.770;2023-01-10T09:53:28;12.40;;;4.30;;
7703;SDS011;3894;49.700;10.770;2023-01-10T09:55:57;13.40;;;2.92;;
7703;SDS011;3894;49.700;10.770;2023-01-10T09:58:25;8.63;;;2.53;;
7703;SDS011;3894;49.700;10.770;2023-01-10T10:01:14;11.50;;;3.25;;
7703;SDS011;3894;49.700;10.770;2023-01-10T10:03:57;6.93;;;2.30;;
7703;SDS011;3894;49.700;10.770;2023-01-10T10:06:44;6.45;;;1.63;;
7703;SDS011;3894;49.700;10.770;2023-01-10T10:09:13;6.05;;;2.08;;
7703;SDS011;3894;49.700;10.770;2023-01-10T10:11:45;8.95;;;1.60;;
7703;SDS011;3894;49.700;10.770;2023-01-10T10:14:20;7.10;;;1.88;;
7703;SDS011;3894;49.700;10.770;2023-01-10T10:28:10;5.70;;;1.50;;
7703;SDS011;3894;49.700;10.770;2023-01-10T10:31:24;6.90;;;1.00;;
7703;SDS011;3894;49.700;10.770;2023-01-10T10:36:37;8.65;;;1.63;;
7703;SDS011;3894;49.700;10.770;2023-01-10T10:39:17;5.05;;;1.05;;
7703;SDS011;3894;49.700;10.770;2023-01-10T10:41:47;32.58;;;15.25;;
7703;SDS011;3894;49.700;10.770;2023-01-10T10:44:25;15.07;;;9.48;;
7703;SDS011;3894;49.700;10.770;2023-01-10T10:47:09;8.98;;;3.22;;
7703;SDS011;3894;49.700;10.770;2023-01-10T10:49:42;8.00;;;1.98;;
7703;SDS011;3894;49.700;10.770;2023-01-10T10:52:30;7.88;;;1.83;;
7703;SDS011;3894;49.700;10.770;2023-01-10T10:54:59;6.43;;;1.08;;
7703;SDS011;3894;49.700;10.770;2023-01-10T10:57:26;5.57;;;1.25;;
7703;SDS011;3894;49.700;10.770;2023-01-10T10:59:53;6.88;;;1.60;;
7703;SDS011;3894;49.700;10.770;2023-01-10T11:02:22;6.25;;;1.33;;
7703;SDS011;3894;49.700;10.770;2023-01-10T11:04:56;8.15;;;1.30;;
7703;SDS011;3894;49.700;10.770;2023-01-10T11:07:31;6.03;;;1.65;;
7703;SDS011;3894;49.700;10.770;2023-01-10T11:10:02;7.82;;;2.05;;
7703;SDS011;3894;49.700;10.770;2023-01-10T11:12:46;5.80;;;2.05;;
7703;SDS011;3894;49.700;10.770;2023-01-10T11:15:35;13.65;;;3.58;;
7703;SDS011;3894;49.700;10.770;2023-01-10T11:18:04;3.95;;;0.88;;
7703;SDS011;3894;49.700;10.770;2023-01-10T11:20:34;6.97;;;1.58;;
7703;SDS011;3894;49.700;10.770;2023-01-10T11:23:00;10.32;;;2.53;;
7703;SDS011;3894;49.700;10.770;2023-01-10T11:25:26;9.77;;;3.25;;
7703;SDS011;3894;49.700;10.770;2023-01-10T11:27:53;10.65;;;3.58;;
7703;SDS011;3894;49.700;10.770;2023-01-10T11:30:22;9.23;;;2.95;;
7703;SDS011;3894;49.700;10.770;2023-01-10T11:35:21;9.40;;;2.60;;
7703;SDS011;3894;49.700;10.770;2023-01-10T11:37:58;13.52;;;3.50;;
7703;SDS011;3894;49.700;10.770;2023-01-10T11:40:26;8.15;;;3.17;;
7703;SDS011;3894;49.700;10.770;2023-01-10T11:42:53;8.18;;;2.92;;
7703;SDS011;3894;49.700;10.770;2023-01-10T11:47:49;6.45;;;1.63;;
7703;SDS011;3894;49.700;10.770;2023-01-10T11:50:49;9.00;;;2.75;;
7703;SDS011;3894;49.700;10.770;2023-01-10T11:53:29;9.18;;;2.35;;
7703;SDS011;3894;49.700;10.770;2023-01-10T11:56:00;10.05;;;3.28;;
7703;SDS011;3894;49.700;10.770;2023-01-10T11:58:33;11.95;;;2.80;;
7703;SDS011;3894;49.700;10.770;2023-01-10T12:01:00;3.90;;;1.35;;
7703;SDS011;3894;49.700;10.770;2023-01-10T12:03:28;7.20;;;1.10;;
7703;SDS011;3894;49.700;10.770;2023-01-10T12:06:12;5.65;;;1.92;;
7703;SDS011;3894;49.700;10.770;2023-01-10T12:08:41;5.93;;;2.67;;
7703;SDS011;3894;49.700;10.770;2023-01-10T12:13:57;5.32;;;1.35;;
7703;SDS011;3894;49.700;10.770;2023-01-10T12:18:55;9.25;;;1.65;;
7703;SDS011;3894;49.700;10.770;2023-01-10T12:21:43;7.30;;;1.05;;
7703;SDS011;3894;49.700;10.770;2023-01-10T12:24:23;4.95;;;0.85;;
7703;SDS011;3894;49.700;10.770;2023-01-10T12:26:57;5.65;;;1.65;;
7703;SDS011;3894;49.700;10.770;2023-01-10T12:29:26;12.07;;;1.88;;
7703;SDS011;3894;49.700;10.770;2023-01-10T12:31:58;6.85;;;1.80;;
7703;SDS011;3894;49.700;10.770;2023-01-10T12:34:26;10.32;;;2.53;;
7703;SDS011;3894;49.700;10.770;2023-01-10T12:37:18;7.20;;;1.73;;
7703;SDS011;3894;49.700;10.770;2023-01-10T12:42:50;6.47;;;1.48;;
7703;SDS011;3894;49.700;10.770;2023-01-10T12:45:47;7.10;;;1.33;;
7703;SDS011;3894;49.700;10.770;2023-01-10T12:48:20;5.68;;;0.90;;
7703;SDS011;3894;49.700;10.770;2023-01-10T12:51:05;10.30;;;1.90;;
7703;SDS011;3894;49.700;10.770;2023-01-10T12:53:47;8.45;;;2.00;;
7703;SDS011;3894;49.700;10.770;2023-01-10T12:56:25;10.48;;;2.60;;
7703;SDS011;3894;49.700;10.770;2023-01-10T12:59:05;6.80;;;1.70;;
7703;SDS011;3894;49.700;10.770;2023-01-10T13:01:38;9.07;;;2.92;;
7703;SDS011;3894;49.700;10.770;2023-01-10T13:04:08;7.47;;;1.65;;
7703;SDS011;3894;49.700;10.770;2023-01-10T13:06:40;3.63;;;0.93;;
7703;SDS011;3894;49.700;10.770;2023-01-10T13:09:08;13.75;;;4.05;;
7703;SDS011;3894;49.700;10.770;2023-01-10T13:11:54;9.82;;;2.75;;
7703;SDS011;3894;49.700;10.770;2023-01-10T13:14:54;13.90;;;3.42;;
7703;SDS011;3894;49.700;10.770;2023-01-10T13:17:41;7.88;;;2.38;;
7703;SDS011;3894;49.700;10.770;2023-01-10T13:22:51;9.52;;;1.85;;
7703;SDS011;3894;49.700;10.770;2023-01-10T13:25:24;10.25;;;2.40;;
7703;SDS011;3894;49.700;10.770;2023-01-10T13:30:43;11.15;;;3.25;;
7703;SDS011;3894;49.700;10.770;2023-01-10T13:33:22;16.30;;;6.15;;
7703;SDS011;3894;49.700;10.770;2023-01-10T13:35:53;13.65;;;4.35;;
7703;SDS011;3894;49.700;10.770;2023-01-10T13:44:28;8.60;;;2.45;;
7703;SDS011;3894;49.700;10.770;2023-01-10T13:46:54;5.45;;;1.88;;
7703;SDS011;3894;49.700;10.770;2023-01-10T13:49:24;8.20;;;1.63;;
7703;SDS011;3894;49.700;10.770;2023-01-10T13:52:20;19.95;;;3.95;;
7703;SDS011;3894;49.700;10.770;2023-01-10T13:54:56;11.48;;;4.55;;
7703;SDS011;3894;49.700;10.770;2023-01-10T14:00:24;8.52;;;2.70;;
7703;SDS011;3894;49.700;10.770;2023-01-10T14:06:34;12.48;;;3.10;;
7703;SDS011;3894;49.700;10.770;2023-01-10T14:14:17;14.77;;;6.50;;
7703;SDS011;3894;49.700;10.770;2023-01-10T14:17:22;16.45;;;6.18;;
7703;SDS011;3894;49.700;10.770;2023-01-10T14:22:45;15.75;;;7.60;;
7703;SDS011;3894;49.700;10.770;2023-01-10T14:25:29;23.02;;;8.05;;
7703;SDS011;3894;49.700;10.770;2023-01-10T14:27:58;12.02;;;5.22;;
7703;SDS011;3894;49.700;10.770;2023-01-10T14:30:58;12.40;;;3.42;;
7703;SDS011;3894;49.700;10.770;2023-01-10T14:33:28;16.35;;;5.35;;
7703;SDS011;3894;49.700;10.770;2023-01-10T14:35:55;8.57;;;3.05;;
7703;SDS011;3894;49.700;10.770;2023-01-10T14:38:26;12.27;;;4.07;;
7703;SDS011;3894;49.700;10.770;2023-01-10T14:40:56;17.45;;;4.63;;
7703;SDS011;3894;49.700;10.770;2023-01-10T14:43:26;16.52;;;4.85;;
7703;SDS011;3894;49.700;10.770;2023-01-10T14:45:58;11.90;;;4.03;;
7703;SDS011;3894;49.700;10.770;2023-01-10T14:48:29;10.98;;;4.57;;
7703;SDS011;3894;49.700;10.770;2023-01-10T14:53:44;10.55;;;2.92;;
7703;SDS011;3894;49.700;10.770;2023-01-10T14:56:28;12.18;;;3.95;;
7703;SDS011;3894;49.700;10.770;2023-01-10T15:01:47;12.77;;;4.00;;
7703;SDS011;3894;49.700;10.770;2023-01-10T15:04:15;18.63;;;6.80;;
7703;SDS011;3894;49.700;10.770;2023-01-10T15:09:18;6.63;;;1.42;;
7703;SDS011;3894;49.700;10.770;2023-01-10T15:11:44;8.85;;;2.15;;
7703;SDS011;3894;49.700;10.770;2023-01-10T15:14:10;8.75;;;1.40;;
7703;SDS011;3894;49.700;10.770;2023-01-10T15:16:41;10.88;;;1.67;;
7703;SDS011;3894;49.700;10.770;2023-01-10T15:19:12;14.98;;;2.92;;
7703;SDS011;3894;49.700;10.770;2023-01-10T15:21:42;11.65;;;1.70;;
7703;SDS011;3894;49.700;10.770;2023-01-10T15:24:22;11.60;;;3.53;;
7703;SDS011;3894;49.700;10.770;2023-01-10T15:26:49;8.88;;;2.28;;
7703;SDS011;3894;49.700;10.770;2023-01-10T15:29:18;12.70;;;3.60;;
7703;SDS011;3894;49.700;10.770;2023-01-10T15:31:47;12.70;;;3.17;;
7703;SDS011;3894;49.700;10.770;2023-01-10T15:34:14;15.23;;;3.10;;
7703;SDS011;3894;49.700;10.770;2023-01-10T15:36:44;8.40;;;1.67;;
7703;SDS011;3894;49.700;10.770;2023-01-10T15:39:24;13.95;;;2.58;;
7703;SDS011;3894;49.700;10.770;2023-01-10T15:41:56;20.13;;;6.82;;
7703;SDS011;3894;49.700;10.770;2023-01-10T15:44:36;14.48;;;2.47;;
7703;SDS011;3894;49.700;10.770;2023-01-10T15:47:04;10.60;;;3.72;;
7703;SDS011;3894;49.700;10.770;2023-01-10T15:49:53;12.18;;;3.67;;
7703;SDS011;3894;49.700;10.770;2023-01-10T15:52:22;18.50;;;4.47;;
7703;SDS011;3894;49.700;10.770;2023-01-10T15:54:48;13.75;;;3.83;;
7703;SDS011;3894;49.700;10.770;2023-01-10T15:57:26;13.98;;;3.95;;
7703;SDS011;3894;49.700;10.770;2023-01-10T15:59:56;11.10;;;2.72;;
7703;SDS011;3894;49.700;10.770;2023-01-10T16:02:24;25.77;;;11.48;;
7703;SDS011;3894;49.700;10.770;2023-01-10T16:05:04;16.88;;;6.47;;
7703;SDS011;3894;49.700;10.770;2023-01-10T16:07:32;12.75;;;5.20;;
7703;SDS011;3894;49.700;10.770;2023-01-10T16:12:34;15.98;;;5.75;;
7703;SDS011;3894;49.700;10.770;2023-01-10T16:15:33;14.02;;;5.95;;
7703;SDS011;3894;49.700;10.770;2023-01-10T16:18:00;17.20;;;3.92;;
7703;SDS011;3894;49.700;10.770;2023-01-10T16:20:39;14.93;;;6.70;;
7703;SDS011;3894;49.700;10.770;2023-01-10T16:23:13;11.75;;;4.50;;
7703;SDS011;3894;49.700;10.770;2023-01-10T16:25:43;17.90;;;8.80;;
7703;SDS011;3894;49.700;10.770;2023-01-10T16:28:11;13.00;;;5.32;;
7703;SDS011;3894;49.700;10.770;2023-01-10T16:30:38;12.25;;;4.05;;
7703;SDS011;3894;49.700;10.770;2023-01-10T16:33:22;10.02;;;5.13;;
7703;SDS011;3894;49.700;10.770;2023-01-10T16:35:52;10.82;;;4.38;;
7703;SDS011;3894;49.700;10.770;2023-01-10T16:38:19;10.65;;;3.95;;
7703;SDS011;3894;49.700;10.770;2023-01-10T16:40:46;22.90;;;8.90;;
7703;SDS011;3894;49.700;10.770;2023-01-10T16:43:15;15.32;;;6.38;;
7703;SDS011;3894;49.700;10.770;2023-01-10T16:45:50;15.93;;;6.40;;
7703;SDS011;3894;49.700;10.770;2023-01-10T16:48:18;17.55;;;6.68;;
7703;SDS011;3894;49.700;10.770;2023-01-10T16:50:45;16.27;;;5.50;;
7703;SDS011;3894;49.700;10.770;2023-01-10T16:53:12;14.05;;;4.93;;
7703;SDS011;3894;49.700;10.770;2023-01-10T16:55:40;13.07;;;4.38;;
7703;SDS011;3894;49.700;10.770;2023-01-10T16:58:08;20.48;;;6.03;;
7703;SDS011;3894;49.700;10.770;2023-01-10T17:00:35;10.40;;;3.97;;